This is the latest recevied weather packets stored in our database for station/object GUNLAK-WX. If no packets are shown the sender has not sent any weather packets the latest 10 day(s).
| Time | Temp. | Humidity | Pressure | Rain* | Wind** | Luminosity | Snow |
|---|---|---|---|---|---|---|---|
| 1777371375 | 13.33° C | 94% | 978.8 hPa | 0.51 mm | - | - | - |
| 1777370507 | 13.89° C | 94% | 978.8 hPa | 0.51 mm | - | - | - |
| 1777369575 | 14.44° C | 91% | 977.4 hPa | 0 mm | - | - | - |
| 1777368685 | 15° C | 91% | 977.4 hPa | 0 mm | - | - | - |
| 1777367775 | 15° C | 91% | 977.4 hPa | 0 mm | - | - | - |
| 1777366895 | 15° C | 91% | 977.4 hPa | 0 mm | - | - | - |
| 1777365974 | 15° C | 88% | 976.6 hPa | 0 mm | - | - | - |
| 1777365090 | 15.56° C | 89% | 976.5 hPa | 0 mm | - | - | - |
| 1777364170 | 15° C | 89% | 976.5 hPa | 0 mm | - | - | - |
| 1777363302 | 15° C | 90% | 976.5 hPa | 0 mm | - | - | - |
| 1777362375 | 15° C | 86% | 976.8 hPa | 0 mm | - | - | - |
| 1777361489 | 15.56° C | 86% | 976.8 hPa | 0 mm | - | - | - |
| 1777360574 | 15° C | 86% | 976.8 hPa | 0 mm | - | - | - |
| 1777359705 | 15° C | 86% | 976.8 hPa | 0 mm | - | - | - |
| 1777358769 | 15° C | 86% | 976.5 hPa | 0 mm | - | - | - |
| 1777357891 | 15° C | 86% | 976.5 hPa | 0 mm | - | - | - |
| 1777356971 | 15.56° C | 86% | 976.5 hPa | 0 mm | - | - | - |
| 1777356115 | 15.56° C | 86% | 976.5 hPa | 0 mm | - | - | - |
| 1777355173 | 15° C | 90% | 976.9 hPa | 0 mm | - | - | - |
| 1777354285 | 16.11° C | 90% | 976.9 hPa | 0 mm | - | - | - |
| 1777353375 | 15.56° C | 90% | 976.9 hPa | 0 mm | - | - | - |
| 1777352501 | 15.56° C | 90% | 976.9 hPa | 0 mm | - | - | - |
| 1777351575 | 15.56° C | 94% | 978.4 hPa | 29.72 mm | - | - | - |
| 1777350689 | 15.56° C | 88% | 978.4 hPa | 29.72 mm | - | - | - |
| 1777349775 | 15° C | 88% | 978.3 hPa | 2.29 mm | - | - | - |
* Rain latest hour (hover to see other rain measurements)
** Current wind speed in m/s (hover to see current wind gust speed)